Time;durP1;ratioP1;P1;durP2;ratioP2;P2;SDS_P1;SDS_P2;PMS_P1;PMS_P2;Temp;Humidity;BMP_temperature;BMP_pressure;BME280_temperature;BME280_humidity;BME280_pressure;Samples;Min_cycle;Max_cycle;Signal;HPM_P1;HPM_P2
2023/11/05 00:01:53;;;;;;;0.30;0.20;;;;;;;;;;5094954;28;20489;-40
2023/11/05 00:04:19;;;;;;;1.38;0.40;;;;;;;;;;5093266;28;20028;-40
2023/11/05 00:06:46;;;;;;;0.35;0.30;;;;;;;;;;5094457;28;20021;-39
2023/11/05 00:09:12;;;;;;;0.30;0.20;;;;;;;;;;5093263;28;20020;-40
2023/11/05 00:11:38;;;;;;;2.05;0.40;;;;;;;;;;5093182;28;20099;-41
2023/11/05 00:14:04;;;;;;;1.02;0.30;;;;;;;;;;5092794;28;20427;-40
2023/11/05 00:16:30;;;;;;;0.45;0.28;;;;;;;;;;5093080;28;20035;-41
2023/11/05 00:18:56;;;;;;;0.68;0.40;;;;;;;;;;5094333;28;20028;-40
2023/11/05 00:21:22;;;;;;;1.13;0.40;;;;;;;;;;5094023;28;20020;-41
2023/11/05 00:23:48;;;;;;;0.82;0.40;;;;;;;;;;5093395;28;20024;-40
2023/11/05 00:26:14;;;;;;;3.70;0.50;;;;;;;;;;5093011;28;20423;-42
2023/11/05 00:28:40;;;;;;;0.43;0.25;;;;;;;;;;5092754;28;20043;-41
2023/11/05 00:31:06;;;;;;;0.52;0.28;;;;;;;;;;5094027;28;20024;-42
2023/11/05 00:33:33;;;;;;;0.30;0.20;;;;;;;;;;5093434;28;20070;-38
2023/11/05 00:35:59;;;;;;;0.60;0.30;;;;;;;;;;5092519;28;20036;-42
2023/11/05 00:38:25;;;;;;;0.32;0.20;;;;;;;;;;5093382;28;20028;-37
2023/11/05 00:40:51;;;;;;;0.82;0.40;;;;;;;;;;5093921;28;20484;-37
2023/11/05 00:43:17;;;;;;;0.20;0.17;;;;;;;;;;5092113;28;20151;-42
2023/11/05 00:45:43;;;;;;;0.57;0.30;;;;;;;;;;5091033;28;20427;-39
2023/11/05 00:48:09;;;;;;;0.63;0.40;;;;;;;;;;5092995;28;20016;-39
2023/11/05 00:50:35;;;;;;;0.45;0.32;;;;;;;;;;5093286;28;20373;-40
2023/11/05 00:53:01;;;;;;;0.25;0.25;;;;;;;;;;5093244;28;20393;-37
2023/11/05 00:55:28;;;;;;;0.73;0.30;;;;;;;;;;5093745;28;20039;-42
2023/11/05 00:57:54;;;;;;;1.92;0.38;;;;;;;;;;5093523;28;20051;-40
2023/11/05 01:00:20;;;;;;;1.08;0.28;;;;;;;;;;5092720;28;20024;-39
2023/11/05 01:02:47;;;;;;;1.15;0.28;;;;;;;;;;5092938;28;20116;-40
2023/11/05 01:05:13;;;;;;;1.10;0.30;;;;;;;;;;5092174;28;20028;-41
2023/11/05 01:07:39;;;;;;;0.30;0.15;;;;;;;;;;5093510;28;20477;-40
2023/11/05 01:10:05;;;;;;;0.50;0.30;;;;;;;;;;5092775;28;20078;-41
2023/11/05 01:12:32;;;;;;;0.98;0.30;;;;;;;;;;5092209;28;20027;-41
2023/11/05 01:14:58;;;;;;;1.13;0.28;;;;;;;;;;5092656;28;20036;-41
2023/11/05 01:17:24;;;;;;;0.28;0.10;;;;;;;;;;5093873;28;20028;-38
2023/11/05 01:19:51;;;;;;;1.00;0.40;;;;;;;;;;5093652;28;20063;-40
2023/11/05 01:22:17;;;;;;;0.40;0.20;;;;;;;;;;5093597;28;20420;-41
2023/11/05 01:24:43;;;;;;;0.40;0.20;;;;;;;;;;5094101;28;20458;-41
2023/11/05 01:27:09;;;;;;;0.68;0.30;;;;;;;;;;5091364;28;20424;-40
2023/11/05 01:29:35;;;;;;;0.43;0.20;;;;;;;;;;5092650;28;20469;-39
2023/11/05 01:32:02;;;;;;;0.70;0.28;;;;;;;;;;5092582;28;20382;-40
2023/11/05 01:34:28;;;;;;;0.20;0.20;;;;;;;;;;5093084;28;20084;-38
2023/11/05 01:36:54;;;;;;;1.38;0.43;;;;;;;;;;5093331;28;20488;-38
2023/11/05 01:39:20;;;;;;;0.43;0.22;;;;;;;;;;5091451;28;20131;-40
2023/11/05 01:41:46;;;;;;;0.28;0.20;;;;;;;;;;5092220;28;20137;-40
2023/11/05 01:44:13;;;;;;;0.57;0.20;;;;;;;;;;5093082;28;20024;-41
2023/11/05 01:46:39;;;;;;;0.45;0.10;;;;;;;;;;5092104;28;20016;-40
2023/11/05 01:49:05;;;;;;;0.45;0.28;;;;;;;;;;5091460;28;20059;-42
2023/11/05 01:51:32;;;;;;;0.32;0.20;;;;;;;;;;5092501;28;20020;-40
2023/11/05 01:53:59;;;;;;;0.45;0.30;;;;;;;;;;5128710;22;20134;-39
2023/11/05 01:56:27;;;;;;;0.60;0.20;;;;;;;;;;5090886;28;20036;-41
2023/11/05 01:58:54;;;;;;;0.40;0.20;;;;;;;;;;5091459;28;20028;-40
2023/11/05 02:01:20;;;;;;;1.05;0.40;;;;;;;;;;5091391;28;20043;-40
2023/11/05 02:03:46;;;;;;;0.20;0.20;;;;;;;;;;5093404;28;20028;-40
2023/11/05 02:06:12;;;;;;;0.75;0.10;;;;;;;;;;5095475;28;20036;-40
2023/11/05 02:08:40;;;;;;;0.50;0.30;;;;;;;;;;5095489;28;20020;-41
2023/11/05 02:11:06;;;;;;;0.70;0.25;;;;;;;;;;5095542;28;20020;-40
2023/11/05 02:14:01;;;;;;;0.30;0.20;;;;;;;;;;5095360;28;20020;-41
2023/11/05 02:16:31;;;;;;;0.93;0.43;;;;;;;;;;5082227;28;20040;-40
2023/11/05 02:18:59;;;;;;;0.25;0.20;;;;;;;;;;5095351;28;20024;-40
2023/11/05 02:21:34;;;;;;;0.50;0.28;;;;;;;;;;5095241;28;20077;-40
2023/11/05 02:24:00;;;;;;;1.70;0.55;;;;;;;;;;5095192;28;20105;-42
2023/11/05 02:26:26;;;;;;;0.40;0.22;;;;;;;;;;5094971;28;20024;-40
2023/11/05 02:28:52;;;;;;;0.80;0.30;;;;;;;;;;5095084;28;20031;-40
2023/11/05 02:31:18;;;;;;;0.35;0.20;;;;;;;;;;5095153;28;20496;-41
2023/11/05 02:33:44;;;;;;;1.00;0.15;;;;;;;;;;5095042;28;20388;-41
2023/11/05 02:36:11;;;;;;;0.40;0.10;;;;;;;;;;5095071;28;20538;-40
2023/11/05 02:38:38;;;;;;;0.43;0.22;;;;;;;;;;5094931;28;20035;-40
2023/11/05 02:41:06;;;;;;;0.50;0.20;;;;;;;;;;5094805;28;20178;-41
2023/11/05 02:43:32;;;;;;;0.40;0.20;;;;;;;;;;5094673;28;20112;-40
2023/11/05 02:45:58;;;;;;;0.77;0.35;;;;;;;;;;5093703;28;20381;-41
2023/11/05 02:48:24;;;;;;;0.52;0.30;;;;;;;;;;5094998;28;20125;-41
2023/11/05 02:50:50;;;;;;;0.55;0.30;;;;;;;;;;5094810;28;20055;-40
2023/11/05 02:53:16;;;;;;;0.20;0.20;;;;;;;;;;5094612;28;20405;-39
2023/11/05 02:55:42;;;;;;;0.28;0.20;;;;;;;;;;5094403;28;20024;-40
2023/11/05 02:58:11;;;;;;;0.40;0.20;;;;;;;;;;5094522;28;20013;-40
2023/11/05 03:00:37;;;;;;;0.28;0.20;;;;;;;;;;5094549;28;20046;-40
2023/11/05 03:03:03;;;;;;;0.60;0.10;;;;;;;;;;5094477;28;20059;-39
2023/11/05 03:05:29;;;;;;;0.68;0.30;;;;;;;;;;5094395;28;20050;-40
2023/11/05 03:07:55;;;;;;;0.20;0.15;;;;;;;;;;5094380;28;20051;-40
2023/11/05 03:10:22;;;;;;;0.75;0.38;;;;;;;;;;5094262;28;20504;-40
2023/11/05 03:12:48;;;;;;;2.70;0.28;;;;;;;;;;5094248;28;20388;-40
2023/11/05 03:15:14;;;;;;;0.45;0.17;;;;;;;;;;5094078;28;20028;-40
2023/11/05 03:17:40;;;;;;;0.35;0.30;;;;;;;;;;5094191;28;20290;-40
2023/11/05 03:20:09;;;;;;;0.40;0.20;;;;;;;;;;5094137;28;20386;-42
2023/11/05 03:22:36;;;;;;;0.20;0.20;;;;;;;;;;5094043;28;20564;-39
2023/11/05 03:25:02;;;;;;;0.10;0.10;;;;;;;;;;5093766;28;20261;-40
2023/11/05 03:27:28;;;;;;;0.35;0.30;;;;;;;;;;5093880;28;20056;-39
2023/11/05 03:29:55;;;;;;;0.50;0.20;;;;;;;;;;5093958;28;20059;-39
2023/11/05 03:32:21;;;;;;;0.70;0.30;;;;;;;;;;5093897;28;20112;-39
2023/11/05 03:34:47;;;;;;;1.42;0.40;;;;;;;;;;5093769;28;20020;-39
2023/11/05 03:37:13;;;;;;;1.02;0.20;;;;;;;;;;5093659;28;20035;-39
2023/11/05 03:39:39;;;;;;;0.77;0.20;;;;;;;;;;5093800;28;20028;-39
2023/11/05 03:42:07;;;;;;;0.60;0.20;;;;;;;;;;5093710;28;20020;-39
2023/11/05 03:44:34;;;;;;;0.50;0.20;;;;;;;;;;5093556;28;20030;-38
2023/11/05 03:47:01;;;;;;;0.98;0.30;;;;;;;;;;5093600;28;20503;-40
2023/11/05 03:49:27;;;;;;;0.80;0.30;;;;;;;;;;5093671;28;20444;-38
2023/11/05 03:51:53;;;;;;;1.70;0.20;;;;;;;;;;5093469;28;20020;-38
2023/11/05 03:54:19;;;;;;;0.82;0.30;;;;;;;;;;5093306;28;20085;-38
2023/11/05 03:56:45;;;;;;;3.63;0.28;;;;;;;;;;5093280;28;20032;-39
2023/11/05 03:59:11;;;;;;;0.30;0.20;;;;;;;;;;5093452;28;20107;-39
2023/11/05 04:01:37;;;;;;;1.60;0.40;;;;;;;;;;5093343;28;20466;-39
2023/11/05 04:04:03;;;;;;;0.95;0.32;;;;;;;;;;5093170;28;20456;-39
2023/11/05 04:06:31;;;;;;;1.27;0.20;;;;;;;;;;5092979;28;20028;-39
2023/11/05 04:08:57;;;;;;;2.95;0.73;;;;;;;;;;5093283;28;20020;-40
2023/11/05 04:11:23;;;;;;;1.02;0.30;;;;;;;;;;5093140;28;20028;-40
2023/11/05 04:13:49;;;;;;;1.05;0.35;;;;;;;;;;5093178;28;20024;-40
2023/11/05 04:16:15;;;;;;;1.23;0.40;;;;;;;;;;5093047;28;20031;-40
2023/11/05 04:18:41;;;;;;;0.95;0.30;;;;;;;;;;5092977;28;20028;-39
2023/11/05 04:21:07;;;;;;;0.63;0.30;;;;;;;;;;5092843;28;20024;-42
2023/11/05 04:23:34;;;;;;;0.70;0.30;;;;;;;;;;5092792;28;20035;-40
2023/11/05 04:26:00;;;;;;;1.05;0.30;;;;;;;;;;5092026;28;20492;-40
2023/11/05 04:28:26;;;;;;;1.38;0.35;;;;;;;;;;5091529;28;20024;-39
2023/11/05 04:30:52;;;;;;;1.52;0.40;;;;;;;;;;5092788;28;20031;-39
2023/11/05 04:33:18;;;;;;;1.13;0.20;;;;;;;;;;5092708;28;20016;-37
2023/11/05 04:35:44;;;;;;;0.90;0.20;;;;;;;;;;5092513;28;20016;-38
2023/11/05 04:38:10;;;;;;;1.38;0.35;;;;;;;;;;5092579;28;20027;-39
2023/11/05 04:40:36;;;;;;;0.50;0.28;;;;;;;;;;5092560;28;20056;-38
2023/11/05 04:43:02;;;;;;;1.17;0.32;;;;;;;;;;5092507;28;20035;-38
2023/11/05 04:45:30;;;;;;;2.00;0.32;;;;;;;;;;5092394;28;20031;-38
2023/11/05 04:47:56;;;;;;;0.65;0.28;;;;;;;;;;5092503;28;20542;-40
2023/11/05 04:50:22;;;;;;;0.65;0.32;;;;;;;;;;5092306;28;20024;-38
2023/11/05 04:52:52;;;;;;;0.38;0.13;;;;;;;;;;5092362;28;20020;-40
2023/11/05 04:55:19;;;;;;;0.68;0.30;;;;;;;;;;5092036;28;20089;-38
2023/11/05 04:57:45;;;;;;;1.70;0.47;;;;;;;;;;5092183;28;20044;-39
2023/11/05 05:00:12;;;;;;;1.30;0.35;;;;;;;;;;5092246;28;20020;-40
2023/11/05 05:02:38;;;;;;;0.73;0.30;;;;;;;;;;5092126;28;20107;-40
2023/11/05 05:05:04;;;;;;;1.77;0.30;;;;;;;;;;5091911;28;20071;-40
2023/11/05 05:07:30;;;;;;;1.90;0.38;;;;;;;;;;5092103;28;20028;-40
2023/11/05 05:09:56;;;;;;;1.98;0.50;;;;;;;;;;5092031;28;20016;-40
2023/11/05 05:12:22;;;;;;;1.15;0.40;;;;;;;;;;5092034;28;20073;-40
2023/11/05 05:14:49;;;;;;;1.00;0.30;;;;;;;;;;5091926;28;20477;-40
2023/11/05 05:17:15;;;;;;;0.57;0.30;;;;;;;;;;5091729;28;20055;-39
2023/11/05 05:19:45;;;;;;;1.05;0.35;;;;;;;;;;5091885;28;20111;-40
2023/11/05 05:22:12;;;;;;;1.88;0.60;;;;;;;;;;5092004;28;20459;-39
2023/11/05 05:24:38;;;;;;;1.75;0.35;;;;;;;;;;5091687;28;20028;-40
2023/11/05 05:27:04;;;;;;;3.00;0.40;;;;;;;;;;5091635;28;20016;-39
2023/11/05 05:29:30;;;;;;;2.33;0.38;;;;;;;;;;5091808;28;20024;-39
2023/11/05 05:31:56;;;;;;;0.57;0.30;;;;;;;;;;5091582;28;20039;-40
2023/11/05 05:34:22;;;;;;;1.08;0.43;;;;;;;;;;5090220;28;20393;-41
2023/11/05 05:36:48;;;;;;;1.35;0.40;;;;;;;;;;5091310;28;20020;-40
2023/11/05 05:39:14;;;;;;;2.58;0.43;;;;;;;;;;5090986;28;20023;-39
2023/11/05 05:41:40;;;;;;;1.70;0.38;;;;;;;;;;5091614;28;20020;-40
2023/11/05 05:44:06;;;;;;;1.13;0.43;;;;;;;;;;5091422;28;20031;-40
2023/11/05 05:46:32;;;;;;;1.52;0.40;;;;;;;;;;5091263;28;20099;-40
2023/11/05 05:48:58;;;;;;;0.95;0.38;;;;;;;;;;5091509;28;20405;-39
2023/11/05 05:51:24;;;;;;;1.08;0.25;;;;;;;;;;5091476;28;20026;-39
2023/11/05 05:53:50;;;;;;;1.98;0.40;;;;;;;;;;5091270;28;20040;-39
2023/11/05 05:56:16;;;;;;;2.90;0.40;;;;;;;;;;5091399;28;20024;-39
2023/11/05 05:58:43;;;;;;;0.82;0.28;;;;;;;;;;5091400;28;20024;-43
2023/11/05 06:01:09;;;;;;;0.40;0.25;;;;;;;;;;5091275;28;20031;-40
2023/11/05 06:03:35;;;;;;;2.50;0.40;;;;;;;;;;5091283;28;20024;-39
2023/11/05 06:06:02;;;;;;;0.88;0.38;;;;;;;;;;5091258;28;20020;-39
2023/11/05 06:08:28;;;;;;;1.10;0.50;;;;;;;;;;5091239;28;20069;-40
2023/11/05 06:10:54;;;;;;;1.00;0.40;;;;;;;;;;5091286;28;20047;-40
2023/11/05 06:13:20;;;;;;;1.83;0.40;;;;;;;;;;5091216;28;20047;-40
2023/11/05 06:15:47;;;;;;;1.95;0.50;;;;;;;;;;5091020;28;20059;-40
2023/11/05 06:18:13;;;;;;;1.92;0.20;;;;;;;;;;5091274;28;20157;-38
2023/11/05 06:20:39;;;;;;;1.10;0.30;;;;;;;;;;5091173;28;20043;-40
2023/11/05 06:23:05;;;;;;;2.10;0.43;;;;;;;;;;5091049;28;20019;-40
2023/11/05 06:25:32;;;;;;;2.88;0.38;;;;;;;;;;5091071;28;20039;-40
2023/11/05 06:27:58;;;;;;;1.27;0.30;;;;;;;;;;5091098;28;20099;-40
2023/11/05 06:30:25;;;;;;;0.65;0.32;;;;;;;;;;5091067;28;20017;-39
2023/11/05 06:32:51;;;;;;;1.85;0.50;;;;;;;;;;5091162;28;20028;-40
2023/11/05 06:35:17;;;;;;;1.02;0.30;;;;;;;;;;5090954;28;20465;-40
2023/11/05 06:37:43;;;;;;;1.45;0.40;;;;;;;;;;5090959;28;20032;-38
2023/11/05 06:40:10;;;;;;;1.20;0.40;;;;;;;;;;5091072;28;20024;-38
2023/11/05 06:42:36;;;;;;;1.10;0.52;;;;;;;;;;5090969;28;20401;-40
2023/11/05 06:45:03;;;;;;;0.50;0.25;;;;;;;;;;5091119;28;20119;-40
2023/11/05 06:47:29;;;;;;;1.02;0.30;;;;;;;;;;5090931;28;20062;-40
2023/11/05 06:49:55;;;;;;;2.38;0.45;;;;;;;;;;5093249;28;20020;-41
2023/11/05 06:52:21;;;;;;;1.45;0.30;;;;;;;;;;5094667;28;20100;-40
2023/11/05 06:54:47;;;;;;;1.00;0.30;;;;;;;;;;5094465;28;20032;-40
2023/11/05 06:57:13;;;;;;;1.00;0.30;;;;;;;;;;5094438;28;20028;-40
2023/11/05 06:59:39;;;;;;;1.02;0.50;;;;;;;;;;5094839;28;20024;-39
2023/11/05 07:02:05;;;;;;;1.15;0.32;;;;;;;;;;5094540;28;20078;-39
2023/11/05 07:04:31;;;;;;;0.82;0.32;;;;;;;;;;5094363;28;20039;-40
2023/11/05 07:06:58;;;;;;;0.55;0.30;;;;;;;;;;5094336;28;20485;-40
2023/11/05 07:09:24;;;;;;;0.80;0.30;;;;;;;;;;5094461;28;20016;-39
2023/11/05 07:11:50;;;;;;;0.70;0.20;;;;;;;;;;5094804;28;20473;-40
2023/11/05 07:14:16;;;;;;;0.75;0.30;;;;;;;;;;5094102;28;20028;-39
2023/11/05 07:16:42;;;;;;;1.65;0.47;;;;;;;;;;5094284;28;20028;-39
2023/11/05 07:19:08;;;;;;;0.98;0.30;;;;;;;;;;5094117;28;20057;-38
2023/11/05 07:21:34;;;;;;;0.80;0.32;;;;;;;;;;5093937;28;20102;-38
2023/11/05 07:24:00;;;;;;;0.60;0.28;;;;;;;;;;5093847;28;20081;-38
2023/11/05 07:26:26;;;;;;;2.08;0.20;;;;;;;;;;5093719;28;20064;-38
2023/11/05 07:28:52;;;;;;;1.10;0.30;;;;;;;;;;5093916;28;20016;-40
2023/11/05 07:31:21;;;;;;;0.70;0.30;;;;;;;;;;5093847;28;20570;-39
2023/11/05 07:33:48;;;;;;;1.05;0.30;;;;;;;;;;5093816;28;20108;-39
2023/11/05 07:36:15;;;;;;;0.50;0.22;;;;;;;;;;5093692;28;20020;-39
2023/11/05 07:38:41;;;;;;;1.20;0.30;;;;;;;;;;5093738;28;20028;-39
2023/11/05 07:41:07;;;;;;;0.43;0.20;;;;;;;;;;5093588;28;20032;-39
2023/11/05 07:43:33;;;;;;;0.47;0.30;;;;;;;;;;5093547;28;20024;-40
2023/11/05 07:46:00;;;;;;;0.70;0.30;;;;;;;;;;5093474;28;20087;-40
2023/11/05 07:48:26;;;;;;;0.40;0.20;;;;;;;;;;5093493;28;20035;-39
2023/11/05 07:50:52;;;;;;;0.10;0.10;;;;;;;;;;5093477;28;20474;-41
2023/11/05 07:53:21;;;;;;;0.75;0.30;;;;;;;;;;5093697;28;20461;-43
2023/11/05 07:55:47;;;;;;;0.50;0.17;;;;;;;;;;5093584;28;20098;-38
2023/11/05 07:58:14;;;;;;;1.38;0.20;;;;;;;;;;5093546;28;20377;-38
2023/11/05 08:00:41;;;;;;;1.02;0.30;;;;;;;;;;5092645;28;20024;-38
2023/11/05 08:03:08;;;;;;;0.17;0.10;;;;;;;;;;5092258;28;20393;-38
2023/11/05 08:05:34;;;;;;;0.25;0.10;;;;;;;;;;5093535;28;20024;-38
2023/11/05 08:08:00;;;;;;;1.13;0.38;;;;;;;;;;5093725;28;20055;-38
2023/11/05 08:10:28;;;;;;;2.03;0.40;;;;;;;;;;5093718;28;20192;-38
2023/11/05 08:12:54;;;;;;;0.93;0.30;;;;;;;;;;5093498;28;20020;-38
2023/11/05 08:15:20;;;;;;;1.98;0.50;;;;;;;;;;5093424;28;20059;-38
2023/11/05 08:17:47;;;;;;;0.50;0.30;;;;;;;;;;5093417;28;20401;-38
2023/11/05 08:20:14;;;;;;;0.93;0.47;;;;;;;;;;5093374;28;20500;-38
2023/11/05 08:22:43;;;;;;;2.22;0.20;;;;;;;;;;5092943;28;20027;-38
2023/11/05 08:25:11;;;;;;;0.77;0.40;;;;;;;;;;5092913;28;20034;-38
2023/11/05 08:27:39;;;;;;;0.60;0.40;;;;;;;;;;5093300;28;20070;-38
2023/11/05 08:30:06;;;;;;;1.35;0.40;;;;;;;;;;5093208;28;20391;-38
2023/11/05 08:32:32;;;;;;;1.55;0.43;;;;;;;;;;5092877;28;20086;-38
2023/11/05 08:34:58;;;;;;;1.13;0.43;;;;;;;;;;5092695;28;20032;-38
2023/11/05 08:37:24;;;;;;;0.60;0.20;;;;;;;;;;5092699;28;20393;-38
2023/11/05 08:39:50;;;;;;;0.80;0.30;;;;;;;;;;5093022;28;20149;-38
2023/11/05 08:42:17;;;;;;;1.23;0.55;;;;;;;;;;5092764;28;20027;-39
2023/11/05 08:44:43;;;;;;;1.50;0.40;;;;;;;;;;5092862;28;20024;-38
2023/11/05 08:47:09;;;;;;;0.65;0.20;;;;;;;;;;5092840;28;20019;-38
2023/11/05 08:49:35;;;;;;;0.65;0.30;;;;;;;;;;5092663;28;20023;-38
2023/11/05 08:52:02;;;;;;;0.85;0.40;;;;;;;;;;5092754;28;20032;-38
2023/11/05 08:54:28;;;;;;;0.45;0.25;;;;;;;;;;5092592;28;20470;-38
2023/11/05 08:56:54;;;;;;;0.98;0.30;;;;;;;;;;5092354;28;20519;-38
2023/11/05 08:59:20;;;;;;;0.43;0.30;;;;;;;;;;5092523;28;20354;-38
2023/11/05 09:01:46;;;;;;;0.60;0.38;;;;;;;;;;5092500;28;20113;-38
2023/11/05 09:04:13;;;;;;;1.17;0.65;;;;;;;;;;5092392;28;20106;-39
2023/11/05 09:06:39;;;;;;;0.93;0.40;;;;;;;;;;5092121;28;20032;-38
2023/11/05 09:09:06;;;;;;;1.50;0.50;;;;;;;;;;5092497;28;20031;-39
2023/11/05 09:11:33;;;;;;;1.33;0.40;;;;;;;;;;5092315;28;20496;-38
2023/11/05 09:13:59;;;;;;;4.65;0.63;;;;;;;;;;5092522;28;20111;-39
2023/11/05 09:16:25;;;;;;;1.65;0.60;;;;;;;;;;5092690;28;20028;-38
2023/11/05 09:18:51;;;;;;;1.15;0.30;;;;;;;;;;5092239;28;20020;-38
2023/11/05 09:21:17;;;;;;;1.05;0.40;;;;;;;;;;5092068;28;20020;-38
2023/11/05 09:23:43;;;;;;;1.15;0.40;;;;;;;;;;5091871;28;20031;-38
2023/11/05 09:26:09;;;;;;;2.75;0.55;;;;;;;;;;5091916;28;20020;-39
2023/11/05 09:28:35;;;;;;;1.27;0.43;;;;;;;;;;5092109;28;20032;-38
2023/11/05 09:31:02;;;;;;;0.75;0.40;;;;;;;;;;5091998;28;20535;-38
2023/11/05 09:33:28;;;;;;;1.15;0.40;;;;;;;;;;5091651;28;20444;-38
2023/11/05 09:35:55;;;;;;;0.98;0.52;;;;;;;;;;5092075;28;20076;-38
2023/11/05 09:38:21;;;;;;;1.15;0.40;;;;;;;;;;5091899;28;20016;-38
2023/11/05 09:40:48;;;;;;;0.75;0.30;;;;;;;;;;5092134;28;20465;-38
2023/11/05 09:43:14;;;;;;;1.90;0.60;;;;;;;;;;5092082;28;20109;-38
2023/11/05 09:45:40;;;;;;;1.90;0.43;;;;;;;;;;5091996;28;20233;-38
2023/11/05 09:48:07;;;;;;;1.65;0.47;;;;;;;;;;5091665;28;20016;-38
2023/11/05 09:50:34;;;;;;;0.90;0.40;;;;;;;;;;5092175;28;20024;-38
2023/11/05 09:53:18;;;;;;;0.77;0.38;;;;;;;;;;5091967;28;20099;-38
2023/11/05 09:55:45;;;;;;;1.02;0.30;;;;;;;;;;5092184;28;20064;-39
2023/11/05 09:58:13;;;;;;;0.80;0.35;;;;;;;;;;5092069;28;20031;-38
2023/11/05 10:00:39;;;;;;;0.63;0.30;;;;;;;;;;5092149;28;20479;-38
2023/11/05 10:03:08;;;;;;;1.45;0.40;;;;;;;;;;5091880;28;20484;-38
2023/11/05 10:05:39;;;;;;;3.83;0.63;;;;;;;;;;5092339;28;20024;-38
2023/11/05 10:08:05;;;;;;;0.70;0.38;;;;;;;;;;5091702;28;20031;-38
2023/11/05 10:10:32;;;;;;;2.33;0.52;;;;;;;;;;5091859;28;20050;-38
2023/11/05 10:12:58;;;;;;;1.42;0.47;;;;;;;;;;5091704;28;20021;-39
2023/11/05 10:15:25;;;;;;;1.90;0.40;;;;;;;;;;5091396;28;20035;-38
2023/11/05 10:17:53;;;;;;;0.52;0.20;;;;;;;;;;5091449;28;20031;-38
2023/11/05 10:20:19;;;;;;;1.67;0.50;;;;;;;;;;5091555;28;20157;-38
2023/11/05 10:22:45;;;;;;;1.52;0.38;;;;;;;;;;5091498;28;20507;-38
2023/11/05 10:25:24;;;;;;;0.60;0.38;;;;;;;;;;5094170;28;20028;-38
2023/11/05 10:27:51;;;;;;;0.95;0.40;;;;;;;;;;5095234;28;20501;-38
2023/11/05 10:30:19;;;;;;;1.42;0.40;;;;;;;;;;5095710;28;20050;-38
2023/11/05 10:32:46;;;;;;;0.85;0.40;;;;;;;;;;5095633;28;20020;-38
2023/11/05 10:35:13;;;;;;;1.05;0.40;;;;;;;;;;5095435;28;20036;-38
2023/11/05 10:37:41;;;;;;;0.88;0.32;;;;;;;;;;5095522;28;20028;-38
2023/11/05 10:40:08;;;;;;;1.10;0.50;;;;;;;;;;5095378;28;20081;-38
2023/11/05 10:42:35;;;;;;;2.15;0.32;;;;;;;;;;5095370;28;20455;-39
2023/11/05 10:45:01;;;;;;;0.52;0.30;;;;;;;;;;5095502;28;20032;-39
2023/11/05 10:47:28;;;;;;;0.50;0.20;;;;;;;;;;5095179;28;20051;-38
2023/11/05 10:49:57;;;;;;;0.75;0.38;;;;;;;;;;5094067;28;20389;-38
2023/11/05 10:52:23;;;;;;;1.77;0.40;;;;;;;;;;5095170;28;20052;-39
2023/11/05 10:55:08;;;;;;;0.25;0.20;;;;;;;;;;5094891;28;20491;-38
2023/11/05 10:57:44;;;;;;;0.75;0.25;;;;;;;;;;5095513;28;20102;-38
2023/11/05 11:00:16;;;;;;;0.50;0.30;;;;;;;;;;5095591;28;20430;-38
2023/11/05 11:02:42;;;;;;;1.05;0.40;;;;;;;;;;5095110;28;20412;-38
2023/11/05 11:05:15;;;;;;;0.85;0.30;;;;;;;;;;5094634;28;20028;-39
2023/11/05 11:07:41;;;;;;;0.68;0.20;;;;;;;;;;5094908;28;20020;-38
2023/11/05 11:10:09;;;;;;;0.95;0.30;;;;;;;;;;5095104;28;20070;-38
2023/11/05 11:12:36;;;;;;;0.50;0.32;;;;;;;;;;5095081;28;20103;-38
2023/11/05 11:15:08;;;;;;;1.33;0.22;;;;;;;;;;5094668;28;20031;-38
2023/11/05 11:17:38;;;;;;;0.40;0.20;;;;;;;;;;5094809;28;20063;-38
2023/11/05 11:20:10;;;;;;;1.25;0.32;;;;;;;;;;5094830;28;20078;-38
2023/11/05 11:22:47;;;;;;;0.82;0.38;;;;;;;;;;5094508;28;20031;-39
2023/11/05 11:25:17;;;;;;;1.00;0.35;;;;;;;;;;5094291;28;20024;-38
2023/11/05 11:27:43;;;;;;;0.28;0.20;;;;;;;;;;5094502;28;20016;-39
2023/11/05 11:30:10;;;;;;;1.08;0.38;;;;;;;;;;5094592;28;20024;-38
2023/11/05 11:32:39;;;;;;;1.65;0.15;;;;;;;;;;5088707;28;20476;-37
2023/11/05 11:35:06;;;;;;;0.40;0.10;;;;;;;;;;5083241;28;20032;-37
2023/11/05 11:37:33;;;;;;;0.30;0.20;;;;;;;;;;5093479;28;20024;-37
2023/11/05 11:40:00;;;;;;;2.08;0.40;;;;;;;;;;5093975;28;20035;-38
2023/11/05 11:42:26;;;;;;;1.77;0.20;;;;;;;;;;5094249;28;20097;-37
2023/11/05 11:44:53;;;;;;;0.22;0.13;;;;;;;;;;5093549;28;20111;-37
2023/11/05 11:47:25;;;;;;;0.80;0.40;;;;;;;;;;5093729;28;20068;-38
2023/11/05 11:49:51;;;;;;;0.70;0.20;;;;;;;;;;5093924;28;20032;-37
2023/11/05 11:52:17;;;;;;;1.08;0.40;;;;;;;;;;5093642;28;20020;-37
2023/11/05 11:54:44;;;;;;;0.60;0.30;;;;;;;;;;5093444;28;20400;-38
2023/11/05 11:57:15;;;;;;;0.95;0.17;;;;;;;;;;5092265;28;20563;-38
2023/11/05 11:59:41;;;;;;;0.28;0.17;;;;;;;;;;5093839;28;20538;-37
2023/11/05 12:02:10;;;;;;;0.20;0.13;;;;;;;;;;5093543;28;20032;-38
2023/11/05 12:04:36;;;;;;;0.68;0.20;;;;;;;;;;5093617;28;20031;-38
2023/11/05 12:07:05;;;;;;;0.30;0.10;;;;;;;;;;5058421;28;20483;-38
2023/11/05 12:09:32;;;;;;;1.45;0.20;;;;;;;;;;5060804;28;20041;-38
2023/11/05 12:11:58;;;;;;;0.70;0.30;;;;;;;;;;5053456;28;20025;-38
2023/11/05 12:14:26;;;;;;;0.20;0.10;;;;;;;;;;5053450;28;20055;-38
2023/11/05 12:16:53;;;;;;;0.20;0.10;;;;;;;;;;5053368;28;20544;-38
2023/11/05 12:19:19;;;;;;;0.68;0.15;;;;;;;;;;5053529;28;20107;-38
2023/11/05 12:21:45;;;;;;;0.30;0.20;;;;;;;;;;5053378;28;20402;-37
2023/11/05 12:24:14;;;;;;;0.63;0.30;;;;;;;;;;5053311;28;20028;-38
2023/11/05 12:26:40;;;;;;;0.68;0.28;;;;;;;;;;5053281;28;20351;-37
2023/11/05 12:29:10;;;;;;;0.10;0.10;;;;;;;;;;5052981;28;20029;-37
2023/11/05 12:31:36;;;;;;;0.60;0.20;;;;;;;;;;5052816;28;20544;-37
2023/11/05 12:34:02;;;;;;;1.02;0.22;;;;;;;;;;5052731;28;20032;-38
2023/11/05 12:36:28;;;;;;;0.93;0.40;;;;;;;;;;5052444;28;20036;-38
2023/11/05 12:38:55;;;;;;;2.35;0.28;;;;;;;;;;5052602;28;20025;-38
2023/11/05 12:41:21;;;;;;;1.55;0.40;;;;;;;;;;5052882;28;20486;-37
2023/11/05 12:43:47;;;;;;;1.38;0.22;;;;;;;;;;5052431;28;20028;-37
2023/11/05 12:46:13;;;;;;;0.47;0.30;;;;;;;;;;5052286;28;20096;-37
2023/11/05 12:48:39;;;;;;;0.73;0.20;;;;;;;;;;5052339;28;20081;-37
2023/11/05 12:51:05;;;;;;;1.55;0.22;;;;;;;;;;5052613;28;20025;-38
2023/11/05 12:53:32;;;;;;;2.05;0.30;;;;;;;;;;5052428;28;20033;-37
2023/11/05 12:56:10;;;;;;;0.68;0.22;;;;;;;;;;5052507;28;20390;-38
2023/11/05 12:58:38;;;;;;;0.73;0.32;;;;;;;;;;5052250;28;20083;-38
2023/11/05 13:01:04;;;;;;;0.75;0.30;;;;;;;;;;5052607;28;20488;-38
2023/11/05 13:03:31;;;;;;;0.50;0.30;;;;;;;;;;5052227;28;20047;-38
2023/11/05 13:05:58;;;;;;;0.90;0.28;;;;;;;;;;5052157;28;20099;-37
2023/11/05 13:08:24;;;;;;;3.40;0.30;;;;;;;;;;5052172;28;20362;-38
2023/11/05 13:10:51;;;;;;;0.38;0.17;;;;;;;;;;5052133;28;20029;-37
2023/11/05 13:13:17;;;;;;;0.43;0.20;;;;;;;;;;5051812;28;20490;-37
2023/11/05 13:15:44;;;;;;;0.80;0.30;;;;;;;;;;5051729;28;20036;-37
2023/11/05 13:18:10;;;;;;;0.52;0.20;;;;;;;;;;5051949;28;20419;-38
2023/11/05 13:20:36;;;;;;;0.65;0.30;;;;;;;;;;5051856;28;20028;-38
2023/11/05 13:23:03;;;;;;;0.40;0.22;;;;;;;;;;5051826;28;20053;-37
2023/11/05 13:25:31;;;;;;;1.10;0.30;;;;;;;;;;5051765;28;20049;-38
2023/11/05 13:28:00;;;;;;;0.63;0.32;;;;;;;;;;5051629;28;20055;-38
2023/11/05 13:30:28;;;;;;;0.93;0.30;;;;;;;;;;5051655;28;20055;-38
2023/11/05 13:32:55;;;;;;;0.35;0.28;;;;;;;;;;5051772;28;20017;-38
2023/11/05 13:35:21;;;;;;;0.28;0.25;;;;;;;;;;5050008;28;20033;-38
2023/11/05 13:37:47;;;;;;;0.70;0.38;;;;;;;;;;5051572;28;20470;-37
2023/11/05 13:40:15;;;;;;;0.47;0.20;;;;;;;;;;5051619;28;20021;-38
2023/11/05 13:42:41;;;;;;;0.82;0.20;;;;;;;;;;5051653;28;20021;-37
2023/11/05 13:45:10;;;;;;;0.77;0.30;;;;;;;;;;5051213;28;20123;-38
2023/11/05 13:47:37;;;;;;;0.98;0.30;;;;;;;;;;5051230;28;20027;-38
2023/11/05 13:50:06;;;;;;;3.10;0.30;;;;;;;;;;5051519;28;20104;-37
2023/11/05 13:52:32;;;;;;;0.65;0.25;;;;;;;;;;5051360;28;20036;-38
2023/11/05 13:54:58;;;;;;;0.70;0.15;;;;;;;;;;5046703;23;20111;-39
2023/11/05 13:57:25;;;;;;;0.45;0.20;;;;;;;;;;5011332;28;20026;-37
2023/11/05 13:59:51;;;;;;;0.80;0.45;;;;;;;;;;5010809;28;20033;-37
2023/11/05 14:02:17;;;;;;;0.80;0.25;;;;;;;;;;5011953;28;20577;-40
2023/11/05 14:04:43;;;;;;;0.65;0.30;;;;;;;;;;5011464;28;20118;-38
2023/11/05 14:07:11;;;;;;;1.10;0.30;;;;;;;;;;5011496;28;20479;-38
2023/11/05 14:09:37;;;;;;;0.60;0.30;;;;;;;;;;5012085;28;20108;-40
2023/11/05 14:12:05;;;;;;;0.45;0.22;;;;;;;;;;5011986;28;20022;-39
2023/11/05 14:14:32;;;;;;;0.75;0.20;;;;;;;;;;5011631;28;20105;-39
2023/11/05 14:16:59;;;;;;;0.38;0.30;;;;;;;;;;5011916;28;20458;-39
2023/11/05 14:19:26;;;;;;;0.50;0.32;;;;;;;;;;5011689;28;20030;-39
2023/11/05 14:21:52;;;;;;;0.90;0.50;;;;;;;;;;5012262;28;20031;-36
2023/11/05 14:24:18;;;;;;;0.38;0.20;;;;;;;;;;5011388;28;20021;-38
2023/11/05 14:26:44;;;;;;;1.77;0.40;;;;;;;;;;5011745;28;20026;-40
2023/11/05 14:29:13;;;;;;;0.30;0.30;;;;;;;;;;5011948;28;20026;-38
2023/11/05 14:31:42;;;;;;;2.15;0.35;;;;;;;;;;5012035;28;20026;-39
2023/11/05 14:34:08;;;;;;;0.30;0.20;;;;;;;;;;5011896;28;20022;-41
2023/11/05 14:36:34;;;;;;;0.93;0.40;;;;;;;;;;5012079;28;20421;-40
2023/11/05 14:39:01;;;;;;;1.10;0.50;;;;;;;;;;5011281;28;20395;-39
2023/11/05 14:41:28;;;;;;;0.50;0.40;;;;;;;;;;5011328;28;20036;-37